createdAt,value
2018-09-19T00:01:31.383Z,20.33
2018-09-19T00:04:55.889Z,20.19
2018-09-19T00:08:20.302Z,20.35
2018-09-19T00:11:44.718Z,20.16
2018-09-19T00:15:09.175Z,20.08
2018-09-19T00:18:33.621Z,20.19
2018-09-19T00:21:58.044Z,20.07
2018-09-19T00:25:22.476Z,19.91
2018-09-19T00:28:46.897Z,19.76
2018-09-19T00:32:11.423Z,19.83
2018-09-19T00:35:35.952Z,19.88
2018-09-19T00:39:00.430Z,19.74
2018-09-19T00:42:24.889Z,19.60
2018-09-19T00:45:49.314Z,19.68
2018-09-19T00:49:13.721Z,19.63
2018-09-19T00:52:38.187Z,19.59
2018-09-19T00:56:02.657Z,19.53
2018-09-19T00:59:27.093Z,19.48
2018-09-19T01:02:51.543Z,19.35
2018-09-19T01:06:16.001Z,19.28
2018-09-19T01:09:40.417Z,19.27
2018-09-19T01:13:04.807Z,19.35
2018-09-19T01:16:29.204Z,19.38
2018-09-19T01:19:53.669Z,19.41
2018-09-19T01:23:18.120Z,19.33
2018-09-19T01:26:42.534Z,19.26
2018-09-19T01:30:07.561Z,19.20
2018-09-19T01:33:31.956Z,19.16
2018-09-19T01:36:56.406Z,19.15
2018-09-19T01:40:20.842Z,19.07
2018-09-19T01:43:45.286Z,19.11
2018-09-19T01:47:09.703Z,19.21
2018-09-19T01:50:34.124Z,19.05
2018-09-19T01:53:58.547Z,18.89
2018-09-19T01:57:23.035Z,18.98
2018-09-19T02:00:47.465Z,18.90
2018-09-19T02:04:11.910Z,19.04
2018-09-19T02:07:36.551Z,18.91
2018-09-19T02:11:00.949Z,19.11
2018-09-19T02:14:25.382Z,19.08
2018-09-19T02:17:49.833Z,18.97
2018-09-19T02:21:14.267Z,18.80
2018-09-19T02:24:38.735Z,18.87
2018-09-19T02:28:03.505Z,18.89
2018-09-19T02:31:28.211Z,18.99
2018-09-19T02:34:52.668Z,18.97
2018-09-19T02:38:17.107Z,18.91
2018-09-19T02:41:41.506Z,18.75
2018-09-19T02:45:06.023Z,18.64
2018-09-19T02:48:30.457Z,18.60
2018-09-19T02:51:57.947Z,18.58
2018-09-19T02:55:22.552Z,18.49
2018-09-19T02:58:47.062Z,18.48
2018-09-19T03:02:11.445Z,18.60
2018-09-19T03:05:35.846Z,18.83
2018-09-19T03:09:00.278Z,18.82
2018-09-19T03:12:24.764Z,18.75
2018-09-19T03:15:49.170Z,18.70
2018-09-19T03:19:13.611Z,18.71
2018-09-19T03:22:38.095Z,18.65
2018-09-19T03:26:02.515Z,18.69
2018-09-19T03:29:27.150Z,19.09
2018-09-19T03:32:51.606Z,19.09
2018-09-19T03:36:16.032Z,19.07
2018-09-19T03:39:40.452Z,19.16
2018-09-19T03:43:04.888Z,19.31
2018-09-19T03:46:29.313Z,19.40
2018-09-19T03:49:53.772Z,19.31
2018-09-19T03:53:18.192Z,19.39
2018-09-19T03:56:42.626Z,19.47
2018-09-19T04:00:07.156Z,19.30
2018-09-19T04:03:31.590Z,19.29
2018-09-19T04:06:56.005Z,19.25
2018-09-19T04:10:20.500Z,19.49
2018-09-19T04:13:44.906Z,19.33
2018-09-19T04:17:09.345Z,19.39
2018-09-19T04:20:33.768Z,19.21
2018-09-19T04:23:58.227Z,19.07
2018-09-19T04:27:22.641Z,18.90
2018-09-19T04:30:47.077Z,18.95
2018-09-19T04:34:11.469Z,18.87
2018-09-19T04:37:35.951Z,18.88
2018-09-19T04:41:00.386Z,18.72
2018-09-19T04:44:24.993Z,18.51
2018-09-19T04:47:49.581Z,18.50
2018-09-19T04:51:14.016Z,18.50
2018-09-19T04:54:38.437Z,18.40
2018-09-19T04:58:02.848Z,18.42
2018-09-19T05:01:27.301Z,18.62
2018-09-19T05:04:51.749Z,18.68
2018-09-19T05:08:16.276Z,18.77
2018-09-19T05:11:40.856Z,18.64
2018-09-19T05:15:05.310Z,18.64
2018-09-19T05:18:29.838Z,18.65
2018-09-19T05:21:54.307Z,18.59
2018-09-19T05:25:18.767Z,18.67
2018-09-19T05:28:43.192Z,18.77
2018-09-19T05:32:07.661Z,18.97
2018-09-19T05:35:32.095Z,18.98
2018-09-19T05:38:56.562Z,19.22
2018-09-19T05:42:21.006Z,19.23
2018-09-19T05:45:45.458Z,19.34
2018-09-19T05:49:09.889Z,19.40
2018-09-19T05:52:34.316Z,19.45
2018-09-19T05:55:58.831Z,19.56
2018-09-19T05:59:23.252Z,19.70
2018-09-19T06:02:47.669Z,19.75
2018-09-19T06:06:12.116Z,19.96
2018-09-19T06:09:36.531Z,20.09
2018-09-19T06:13:01.003Z,20.00
2018-09-19T06:16:25.384Z,20.10
2018-09-19T06:19:50.268Z,20.36
2018-09-19T06:23:14.686Z,20.34
2018-09-19T06:26:39.123Z,20.39
2018-09-19T06:30:03.595Z,20.38
2018-09-19T06:33:28.043Z,20.52
2018-09-19T06:36:52.504Z,20.49
2018-09-19T06:40:16.945Z,20.66
2018-09-19T06:43:41.358Z,20.74
2018-09-19T06:47:05.916Z,20.70
2018-09-19T06:50:30.327Z,20.64
2018-09-19T06:53:54.792Z,20.91
2018-09-19T06:57:19.257Z,20.94
2018-09-19T07:00:43.691Z,21.04
2018-09-19T07:04:08.196Z,21.33
2018-09-19T07:07:32.660Z,21.33
2018-09-19T07:10:57.111Z,21.38
2018-09-19T07:14:21.592Z,21.42
2018-09-19T07:17:46.023Z,21.54
2018-09-19T07:21:10.554Z,21.52
2018-09-19T07:24:34.958Z,21.71
2018-09-19T07:27:59.482Z,21.80
2018-09-19T07:31:23.909Z,21.90
2018-09-19T07:34:48.401Z,21.82
2018-09-19T07:38:12.796Z,22.24
2018-09-19T07:41:37.194Z,22.36
2018-09-19T07:45:01.651Z,22.39
2018-09-19T07:48:26.079Z,22.39
2018-09-19T07:51:50.555Z,22.59
2018-09-19T07:55:15.082Z,22.69
2018-09-19T07:58:39.529Z,22.80
2018-09-19T08:02:03.954Z,23.09
2018-09-19T08:05:28.394Z,23.06
2018-09-19T08:08:52.834Z,23.08
2018-09-19T08:12:17.201Z,23.30
2018-09-19T08:15:41.625Z,23.43
2018-09-19T08:19:06.028Z,23.53
2018-09-19T08:22:30.550Z,23.48
2018-09-19T08:25:54.886Z,23.65
2018-09-19T08:29:19.317Z,23.83
2018-09-19T08:32:43.778Z,23.65
2018-09-19T08:36:08.306Z,23.88
2018-09-19T08:39:32.778Z,24.06
2018-09-19T08:42:57.242Z,24.25
2018-09-19T08:46:21.712Z,24.58
2018-09-19T08:49:46.185Z,24.33
2018-09-19T08:53:13.232Z,24.27
2018-09-19T08:56:37.635Z,24.42
2018-09-19T09:00:02.133Z,24.72
2018-09-19T09:03:26.599Z,24.96
2018-09-19T09:06:51.059Z,25.08
2018-09-19T09:10:18.466Z,25.44
2018-09-19T09:13:42.944Z,25.73
2018-09-19T09:17:07.322Z,25.43
2018-09-19T09:20:31.789Z,25.50
2018-09-19T09:23:56.224Z,25.64
2018-09-19T09:27:20.764Z,25.98
2018-09-19T09:30:45.138Z,26.06
2018-09-19T09:34:09.675Z,26.11
2018-09-19T09:37:34.326Z,26.44
2018-09-19T09:40:58.769Z,26.65
2018-09-19T09:44:23.294Z,26.95
2018-09-19T09:47:47.723Z,27.25
2018-09-19T09:51:12.140Z,27.81
2018-09-19T09:54:36.766Z,28.22
2018-09-19T09:58:01.322Z,27.81
2018-09-19T10:01:25.791Z,28.44
2018-09-19T10:04:50.240Z,27.81
2018-09-19T10:08:14.693Z,27.82
2018-09-19T10:11:39.126Z,27.56
2018-09-19T10:15:03.527Z,27.88
2018-09-19T10:18:28.012Z,27.84
2018-09-19T10:21:52.428Z,27.86
2018-09-19T10:25:16.919Z,28.33
2018-09-19T10:28:41.367Z,28.39
2018-09-19T10:32:05.893Z,27.75
2018-09-19T10:35:30.325Z,27.74
2018-09-19T10:38:54.798Z,28.06
2018-09-19T10:42:19.227Z,27.89
2018-09-19T10:45:43.683Z,27.73
2018-09-19T10:49:08.184Z,28.38
2018-09-19T10:52:32.594Z,27.87
2018-09-19T10:55:57.106Z,27.85
2018-09-19T10:59:21.565Z,27.78
2018-09-19T11:02:46.040Z,27.68
2018-09-19T11:06:10.497Z,27.48
2018-09-19T11:09:34.925Z,27.57
2018-09-19T11:12:59.344Z,28.13
2018-09-19T11:16:23.755Z,29.13
2018-09-19T11:19:48.331Z,29.38
2018-09-19T11:23:12.785Z,29.61
2018-09-19T11:26:37.207Z,29.53
2018-09-19T11:30:01.666Z,30.51
2018-09-19T11:33:26.106Z,30.64
2018-09-19T11:36:50.528Z,31.21
2018-09-19T11:40:14.967Z,30.73
2018-09-19T11:43:39.483Z,31.25
2018-09-19T11:47:03.959Z,31.31
2018-09-19T11:50:28.446Z,31.97
2018-09-19T11:53:52.889Z,31.79
2018-09-19T11:57:17.566Z,31.55
2018-09-19T12:00:41.980Z,32.31
2018-09-19T12:04:06.482Z,31.79
2018-09-19T12:07:31.318Z,32.28
2018-09-19T12:10:55.751Z,32.14
2018-09-19T12:14:20.207Z,33.40
2018-09-19T12:17:44.680Z,32.96
2018-09-19T12:21:09.120Z,33.95
2018-09-19T12:24:33.528Z,33.82
2018-09-19T12:27:58.179Z,34.24
2018-09-19T12:31:22.621Z,33.21
2018-09-19T12:34:47.075Z,32.67
2018-09-19T12:38:11.923Z,33.06
2018-09-19T12:41:36.398Z,32.82
2018-09-19T12:45:00.800Z,32.83
2018-09-19T12:48:25.199Z,32.74
2018-09-19T12:51:49.630Z,33.03
2018-09-19T12:55:14.110Z,31.48
2018-09-19T12:58:38.973Z,31.38
2018-09-19T13:02:03.386Z,32.35
2018-09-19T13:05:27.829Z,32.84
2018-09-19T13:08:52.282Z,33.15
2018-09-19T13:12:16.940Z,33.49
2018-09-19T13:15:41.343Z,33.72
2018-09-19T13:19:05.777Z,35.07
2018-09-19T13:22:30.224Z,33.44
2018-09-19T13:25:54.633Z,34.55
2018-09-19T13:29:19.073Z,36.31
2018-09-19T13:32:43.496Z,34.66
2018-09-19T13:36:07.903Z,34.82
2018-09-19T13:39:32.337Z,33.81
2018-09-19T13:42:56.802Z,35.08
2018-09-19T13:46:21.308Z,35.97
2018-09-19T13:49:52.767Z,36.19
2018-09-19T13:53:21.438Z,36.06
2018-09-19T13:56:45.853Z,35.54
2018-09-19T14:00:10.299Z,34.67
2018-09-19T14:03:34.729Z,35.95
2018-09-19T14:06:59.115Z,34.89
2018-09-19T14:10:23.592Z,36.11
2018-09-19T14:13:48.008Z,35.42
2018-09-19T14:17:12.399Z,35.12
2018-09-19T14:20:37.125Z,36.28
2018-09-19T14:24:01.600Z,36.61
2018-09-19T14:27:26.013Z,35.11
2018-09-19T14:30:50.422Z,34.33
2018-09-19T14:34:14.850Z,35.99
2018-09-19T14:37:39.287Z,35.07
2018-09-19T14:41:03.759Z,35.95
2018-09-19T14:44:28.188Z,35.63
2018-09-19T14:47:52.708Z,34.41
2018-09-19T14:51:17.123Z,36.24
2018-09-19T14:54:41.572Z,35.95
2018-09-19T14:58:06.025Z,36.31
2018-09-19T15:01:30.417Z,35.03
2018-09-19T15:04:55.020Z,35.00
2018-09-19T15:08:19.465Z,35.00
2018-09-19T15:11:43.901Z,36.61
2018-09-19T15:15:08.318Z,36.51
2018-09-19T15:18:32.752Z,35.66
2018-09-19T15:21:57.317Z,34.62
2018-09-19T15:25:21.748Z,35.52
2018-09-19T15:28:46.230Z,35.27
2018-09-19T15:32:10.737Z,34.55
2018-09-19T15:35:35.232Z,34.85
2018-09-19T15:38:59.679Z,34.05
2018-09-19T15:42:24.165Z,33.47
2018-09-19T15:45:48.676Z,34.38
2018-09-19T15:49:13.115Z,35.04
2018-09-19T15:52:37.525Z,34.95
2018-09-19T15:56:03.393Z,36.09
2018-09-19T15:59:27.844Z,36.81
2018-09-19T16:02:52.285Z,34.84
2018-09-19T16:06:16.731Z,35.56
2018-09-19T16:09:41.192Z,35.01
2018-09-19T16:13:27.190Z,35.28
2018-09-19T16:16:51.652Z,35.49
2018-09-19T16:20:16.175Z,33.21
2018-09-19T16:23:40.598Z,32.67
2018-09-19T16:27:05.053Z,32.87
2018-09-19T16:30:29.514Z,33.08
2018-09-19T16:33:54.040Z,32.63
2018-09-19T16:37:18.461Z,32.60
2018-09-19T16:40:42.902Z,32.14
2018-09-19T16:44:07.582Z,31.72
2018-09-19T16:47:32.079Z,31.74
2018-09-19T16:50:56.497Z,31.35
2018-09-19T16:54:20.940Z,30.85
2018-09-19T16:57:45.373Z,30.11
2018-09-19T17:01:09.864Z,29.93
2018-09-19T17:04:34.357Z,29.76
2018-09-19T17:07:58.922Z,29.75
2018-09-19T17:11:23.401Z,29.59
2018-09-19T17:14:47.803Z,29.42
2018-09-19T17:18:12.233Z,29.10
2018-09-19T17:23:12.525Z,29.09
2018-09-19T17:26:36.985Z,28.82
2018-09-19T17:30:01.427Z,28.66
2018-09-19T17:33:26.104Z,28.50
2018-09-19T17:36:50.637Z,28.20
2018-09-19T17:40:15.082Z,28.26
2018-09-19T17:43:39.472Z,28.22
2018-09-19T17:47:03.978Z,27.88
2018-09-19T17:50:28.501Z,27.68
2018-09-19T17:53:52.955Z,27.83
2018-09-19T17:57:17.422Z,27.72
2018-09-19T18:00:41.857Z,27.10
2018-09-19T18:04:06.390Z,27.26
2018-09-19T18:07:30.797Z,27.20
2018-09-19T18:10:55.261Z,27.19
2018-09-19T18:14:19.762Z,27.16
2018-09-19T18:17:44.265Z,27.10
2018-09-19T18:21:08.798Z,26.80
2018-09-19T18:24:33.256Z,26.97
2018-09-19T18:27:57.675Z,26.87
2018-09-19T18:31:22.119Z,26.75
2018-09-19T18:34:46.593Z,26.64
2018-09-19T18:38:11.147Z,26.73
2018-09-19T18:41:36.078Z,26.63
2018-09-19T18:45:00.521Z,26.49
2018-09-19T18:48:25.243Z,26.22
2018-09-19T18:51:49.732Z,26.06
2018-09-19T18:55:14.225Z,26.08
2018-09-19T18:58:38.816Z,25.91
2018-09-19T19:02:03.290Z,25.54
2018-09-19T19:05:27.745Z,25.54
2018-09-19T19:08:52.205Z,25.41
2018-09-19T19:12:17.966Z,25.29
2018-09-19T19:15:42.366Z,25.10
2018-09-19T19:19:07.820Z,24.99
2018-09-19T19:22:32.348Z,24.85
2018-09-19T19:25:58.227Z,24.61
2018-09-19T19:29:23.301Z,24.49
2018-09-19T19:32:48.862Z,24.16
2018-09-19T19:36:13.709Z,24.25
2018-09-19T19:39:38.381Z,24.26
2018-09-19T19:43:03.975Z,24.04
2018-09-19T19:46:29.767Z,23.89
2018-09-19T19:49:55.042Z,23.97
2018-09-19T19:53:19.496Z,23.85
2018-09-19T19:56:51.128Z,23.72
2018-09-19T20:00:15.587Z,23.54
2018-09-19T20:03:40.207Z,23.67
2018-09-19T20:07:05.337Z,23.51
2018-09-19T20:10:34.283Z,23.30
2018-09-19T20:14:01.450Z,23.24
2018-09-19T20:17:25.991Z,23.37
2018-09-19T20:20:50.454Z,23.33
2018-09-19T20:24:14.932Z,23.65
2018-09-19T20:27:39.539Z,23.68
2018-09-19T20:31:04.142Z,23.57
2018-09-19T20:34:28.691Z,23.54
2018-09-19T20:37:53.203Z,23.81
2018-09-19T20:41:17.688Z,23.63
2018-09-19T20:44:42.187Z,23.69
2018-09-19T20:48:06.862Z,23.78
2018-09-19T20:51:31.346Z,23.94
2018-09-19T20:54:55.836Z,23.85
2018-09-19T20:58:20.415Z,23.68
2018-09-19T21:01:44.873Z,23.87
2018-09-19T21:05:09.419Z,23.65
2018-09-19T21:08:33.845Z,23.84
2018-09-19T21:11:58.328Z,23.61
2018-09-19T21:15:23.453Z,23.65
2018-09-19T21:18:47.954Z,23.63
2018-09-19T21:22:12.637Z,23.72
2018-09-19T21:25:36.943Z,23.68
2018-09-19T21:29:01.419Z,23.64
2018-09-19T21:32:26.019Z,23.45
2018-09-19T21:35:50.449Z,23.55
2018-09-19T21:39:14.864Z,23.54
2018-09-19T21:42:39.291Z,23.25
2018-09-19T21:46:03.713Z,23.15
2018-09-19T21:49:28.147Z,22.86
2018-09-19T21:52:52.575Z,22.71
2018-09-19T21:56:16.995Z,22.82
2018-09-19T21:59:41.444Z,22.58
2018-09-19T22:03:06.078Z,22.27
2018-09-19T22:06:30.488Z,22.29
2018-09-19T22:10:01.676Z,22.22
2018-09-19T22:13:26.113Z,21.97
2018-09-19T22:16:50.519Z,22.29
2018-09-19T22:20:14.973Z,22.19
2018-09-19T22:23:39.386Z,22.14
2018-09-19T22:27:03.827Z,22.01
2018-09-19T22:30:28.277Z,22.05
2018-09-19T22:33:52.702Z,22.13
2018-09-19T22:37:17.118Z,22.01
2018-09-19T22:40:41.539Z,22.01
2018-09-19T22:44:06.049Z,22.11
2018-09-19T22:47:30.489Z,21.97
2018-09-19T22:50:54.915Z,22.09
2018-09-19T22:54:19.339Z,22.24
2018-09-19T22:57:43.741Z,21.93
2018-09-19T23:01:08.161Z,21.99
2018-09-19T23:04:32.609Z,21.95
2018-09-19T23:07:57.035Z,21.91
2018-09-19T23:11:21.449Z,21.84
2018-09-19T23:14:45.918Z,21.86
2018-09-19T23:18:10.357Z,21.82
2018-09-19T23:21:34.800Z,21.93
2018-09-19T23:24:59.180Z,21.91
2018-09-19T23:28:23.616Z,21.78
2018-09-19T23:31:48.095Z,21.63
2018-09-19T23:35:12.526Z,21.75
2018-09-19T23:38:36.983Z,21.60
2018-09-19T23:42:02.351Z,21.49
2018-09-19T23:45:26.772Z,21.51
2018-09-19T23:48:51.177Z,21.71
2018-09-19T23:52:15.626Z,21.48
2018-09-19T23:55:40.065Z,21.40
2018-09-19T23:59:04.523Z,21.42
